sensor_id;sensor_type;location;lat;lon;timestamp;P1;durP1;ratioP1;P2;durP2;ratioP2
47403;SDS011;33157;51.508;4.288;2023-12-04T00:04:00;12.73;;;6.43;;
47403;SDS011;33157;51.508;4.288;2023-12-04T00:09:01;11.23;;;6.03;;
47403;SDS011;33157;51.508;4.288;2023-12-04T00:14:01;11.82;;;6.18;;
47403;SDS011;33157;51.508;4.288;2023-12-04T00:19:02;12.75;;;6.88;;
47403;SDS011;33157;51.508;4.288;2023-12-04T00:24:03;10.43;;;6.30;;
47403;SDS011;33157;51.508;4.288;2023-12-04T00:29:04;9.70;;;6.10;;
47403;SDS011;33157;51.508;4.288;2023-12-04T00:34:04;12.93;;;6.78;;
47403;SDS011;33157;51.508;4.288;2023-12-04T00:39:05;10.55;;;6.22;;
47403;SDS011;33157;51.508;4.288;2023-12-04T00:44:05;13.95;;;7.60;;
47403;SDS011;33157;51.508;4.288;2023-12-04T00:49:06;13.35;;;6.90;;
47403;SDS011;33157;51.508;4.288;2023-12-04T00:54:06;12.20;;;7.05;;
47403;SDS011;33157;51.508;4.288;2023-12-04T00:59:09;12.77;;;7.32;;
47403;SDS011;33157;51.508;4.288;2023-12-04T01:04:10;14.10;;;7.93;;
47403;SDS011;33157;51.508;4.288;2023-12-04T01:09:10;11.48;;;6.43;;
47403;SDS011;33157;51.508;4.288;2023-12-04T01:14:11;11.20;;;6.63;;
47403;SDS011;33157;51.508;4.288;2023-12-04T01:19:11;13.70;;;6.60;;
47403;SDS011;33157;51.508;4.288;2023-12-04T01:24:14;13.60;;;7.07;;
47403;SDS011;33157;51.508;4.288;2023-12-04T01:29:15;11.95;;;7.38;;
47403;SDS011;33157;51.508;4.288;2023-12-04T01:34:15;9.82;;;6.50;;
47403;SDS011;33157;51.508;4.288;2023-12-04T01:39:16;12.27;;;7.13;;
47403;SDS011;33157;51.508;4.288;2023-12-04T01:44:16;11.38;;;6.72;;
47403;SDS011;33157;51.508;4.288;2023-12-04T01:49:17;11.90;;;7.10;;
47403;SDS011;33157;51.508;4.288;2023-12-04T01:54:18;14.20;;;8.10;;
47403;SDS011;33157;51.508;4.288;2023-12-04T01:59:19;12.98;;;7.15;;
47403;SDS011;33157;51.508;4.288;2023-12-04T02:04:19;13.10;;;6.60;;
47403;SDS011;33157;51.508;4.288;2023-12-04T02:09:20;10.07;;;6.13;;
47403;SDS011;33157;51.508;4.288;2023-12-04T02:14:21;11.63;;;6.22;;
47403;SDS011;33157;51.508;4.288;2023-12-04T02:19:23;12.23;;;6.05;;
47403;SDS011;33157;51.508;4.288;2023-12-04T02:24:23;10.18;;;6.28;;
47403;SDS011;33157;51.508;4.288;2023-12-04T02:29:31;10.95;;;6.35;;
47403;SDS011;33157;51.508;4.288;2023-12-04T02:34:33;10.88;;;6.38;;
47403;SDS011;33157;51.508;4.288;2023-12-04T02:39:33;10.77;;;5.85;;
47403;SDS011;33157;51.508;4.288;2023-12-04T02:44:34;10.70;;;5.63;;
47403;SDS011;33157;51.508;4.288;2023-12-04T02:49:34;11.45;;;6.20;;
47403;SDS011;33157;51.508;4.288;2023-12-04T02:54:35;10.63;;;5.70;;
47403;SDS011;33157;51.508;4.288;2023-12-04T02:59:35;10.23;;;5.60;;
47403;SDS011;33157;51.508;4.288;2023-12-04T03:04:36;9.48;;;5.97;;
47403;SDS011;33157;51.508;4.288;2023-12-04T03:09:36;9.15;;;4.82;;
47403;SDS011;33157;51.508;4.288;2023-12-04T03:14:36;8.15;;;5.07;;
47403;SDS011;33157;51.508;4.288;2023-12-04T03:19:37;9.00;;;4.95;;
47403;SDS011;33157;51.508;4.288;2023-12-04T03:24:37;8.23;;;4.85;;
47403;SDS011;33157;51.508;4.288;2023-12-04T03:29:37;8.85;;;4.90;;
47403;SDS011;33157;51.508;4.288;2023-12-04T03:34:38;10.00;;;4.85;;
47403;SDS011;33157;51.508;4.288;2023-12-04T03:39:38;9.75;;;4.82;;
47403;SDS011;33157;51.508;4.288;2023-12-04T03:44:39;9.07;;;5.07;;
47403;SDS011;33157;51.508;4.288;2023-12-04T03:49:39;8.68;;;4.88;;
47403;SDS011;33157;51.508;4.288;2023-12-04T03:54:40;11.38;;;4.30;;
47403;SDS011;33157;51.508;4.288;2023-12-04T03:59:40;9.55;;;5.55;;
47403;SDS011;33157;51.508;4.288;2023-12-04T04:04:40;7.20;;;4.65;;
47403;SDS011;33157;51.508;4.288;2023-12-04T04:09:41;7.53;;;4.40;;
47403;SDS011;33157;51.508;4.288;2023-12-04T04:14:41;8.73;;;4.35;;
47403;SDS011;33157;51.508;4.288;2023-12-04T04:19:42;7.70;;;4.75;;
47403;SDS011;33157;51.508;4.288;2023-12-04T04:24:42;7.10;;;4.13;;
47403;SDS011;33157;51.508;4.288;2023-12-04T04:29:43;7.43;;;4.22;;
47403;SDS011;33157;51.508;4.288;2023-12-04T04:34:43;7.20;;;4.38;;
47403;SDS011;33157;51.508;4.288;2023-12-04T04:39:44;9.02;;;4.78;;
47403;SDS011;33157;51.508;4.288;2023-12-04T04:44:44;9.77;;;5.10;;
47403;SDS011;33157;51.508;4.288;2023-12-04T04:49:44;6.95;;;4.03;;
47403;SDS011;33157;51.508;4.288;2023-12-04T04:54:45;7.82;;;4.45;;
47403;SDS011;33157;51.508;4.288;2023-12-04T04:59:45;9.13;;;4.40;;
47403;SDS011;33157;51.508;4.288;2023-12-04T05:04:46;6.90;;;4.40;;
47403;SDS011;33157;51.508;4.288;2023-12-04T05:09:46;7.20;;;4.22;;
47403;SDS011;33157;51.508;4.288;2023-12-04T05:14:47;6.95;;;4.05;;
47403;SDS011;33157;51.508;4.288;2023-12-04T05:19:47;6.43;;;3.92;;
47403;SDS011;33157;51.508;4.288;2023-12-04T05:24:48;7.40;;;4.25;;
47403;SDS011;33157;51.508;4.288;2023-12-04T05:29:48;8.45;;;4.70;;
47403;SDS011;33157;51.508;4.288;2023-12-04T05:34:48;8.60;;;4.88;;
47403;SDS011;33157;51.508;4.288;2023-12-04T05:39:49;6.45;;;4.03;;
47403;SDS011;33157;51.508;4.288;2023-12-04T05:44:49;6.15;;;3.55;;
47403;SDS011;33157;51.508;4.288;2023-12-04T05:49:50;8.43;;;4.35;;
47403;SDS011;33157;51.508;4.288;2023-12-04T05:54:50;6.03;;;3.53;;
47403;SDS011;33157;51.508;4.288;2023-12-04T05:59:51;5.72;;;3.65;;
47403;SDS011;33157;51.508;4.288;2023-12-04T06:04:52;7.53;;;4.32;;
47403;SDS011;33157;51.508;4.288;2023-12-04T06:09:52;11.63;;;4.15;;
47403;SDS011;33157;51.508;4.288;2023-12-04T06:14:52;7.90;;;4.78;;
47403;SDS011;33157;51.508;4.288;2023-12-04T06:19:55;8.02;;;4.68;;
47403;SDS011;33157;51.508;4.288;2023-12-04T06:24:56;7.60;;;4.35;;
47403;SDS011;33157;51.508;4.288;2023-12-04T06:29:56;8.30;;;4.50;;
47403;SDS011;33157;51.508;4.288;2023-12-04T06:34:58;8.00;;;4.53;;
47403;SDS011;33157;51.508;4.288;2023-12-04T06:40:01;8.82;;;5.05;;
47403;SDS011;33157;51.508;4.288;2023-12-04T06:45:02;8.18;;;4.68;;
47403;SDS011;33157;51.508;4.288;2023-12-04T06:50:03;8.77;;;4.75;;
47403;SDS011;33157;51.508;4.288;2023-12-04T06:55:04;7.65;;;4.53;;
47403;SDS011;33157;51.508;4.288;2023-12-04T07:00:05;7.05;;;4.18;;
47403;SDS011;33157;51.508;4.288;2023-12-04T07:05:12;8.32;;;4.78;;
47403;SDS011;33157;51.508;4.288;2023-12-04T07:10:13;7.22;;;3.97;;
47403;SDS011;33157;51.508;4.288;2023-12-04T07:15:14;7.00;;;4.45;;
47403;SDS011;33157;51.508;4.288;2023-12-04T07:20:15;9.30;;;4.82;;
47403;SDS011;33157;51.508;4.288;2023-12-04T07:25:15;10.88;;;4.30;;
47403;SDS011;33157;51.508;4.288;2023-12-04T07:30:16;7.53;;;4.43;;
47403;SDS011;33157;51.508;4.288;2023-12-04T07:35:17;7.32;;;4.53;;
47403;SDS011;33157;51.508;4.288;2023-12-04T07:40:18;7.00;;;4.22;;
47403;SDS011;33157;51.508;4.288;2023-12-04T07:45:18;6.22;;;3.60;;
47403;SDS011;33157;51.508;4.288;2023-12-04T07:50:19;7.25;;;4.40;;
47403;SDS011;33157;51.508;4.288;2023-12-04T07:55:19;7.70;;;5.00;;
47403;SDS011;33157;51.508;4.288;2023-12-04T08:00:20;6.88;;;4.18;;
47403;SDS011;33157;51.508;4.288;2023-12-04T08:05:22;6.45;;;3.70;;
47403;SDS011;33157;51.508;4.288;2023-12-04T08:10:23;8.00;;;4.28;;
47403;SDS011;33157;51.508;4.288;2023-12-04T08:15:24;8.03;;;4.17;;
47403;SDS011;33157;51.508;4.288;2023-12-04T08:20:25;6.30;;;3.65;;
47403;SDS011;33157;51.508;4.288;2023-12-04T08:25:25;8.10;;;3.67;;
47403;SDS011;33157;51.508;4.288;2023-12-04T08:30:26;7.40;;;4.53;;
47403;SDS011;33157;51.508;4.288;2023-12-04T08:35:27;11.70;;;4.97;;
47403;SDS011;33157;51.508;4.288;2023-12-04T08:40:27;22.58;;;12.27;;
47403;SDS011;33157;51.508;4.288;2023-12-04T08:45:28;8.32;;;5.35;;
47403;SDS011;33157;51.508;4.288;2023-12-04T08:50:28;9.52;;;7.53;;
47403;SDS011;33157;51.508;4.288;2023-12-04T08:55:29;7.90;;;4.82;;
47403;SDS011;33157;51.508;4.288;2023-12-04T09:00:29;6.15;;;3.95;;
47403;SDS011;33157;51.508;4.288;2023-12-04T09:05:29;9.50;;;4.30;;
47403;SDS011;33157;51.508;4.288;2023-12-04T09:10:30;6.80;;;4.20;;
47403;SDS011;33157;51.508;4.288;2023-12-04T09:15:30;5.43;;;3.67;;
47403;SDS011;33157;51.508;4.288;2023-12-04T09:20:30;6.95;;;4.03;;
47403;SDS011;33157;51.508;4.288;2023-12-04T09:25:31;7.63;;;4.00;;
47403;SDS011;33157;51.508;4.288;2023-12-04T09:30:33;6.25;;;3.47;;
47403;SDS011;33157;51.508;4.288;2023-12-04T09:35:34;6.60;;;3.30;;
47403;SDS011;33157;51.508;4.288;2023-12-04T09:40:37;8.75;;;5.05;;
47403;SDS011;33157;51.508;4.288;2023-12-04T09:45:40;6.07;;;3.97;;
47403;SDS011;33157;51.508;4.288;2023-12-04T09:50:41;6.90;;;3.95;;
47403;SDS011;33157;51.508;4.288;2023-12-04T09:55:42;7.18;;;4.13;;
47403;SDS011;33157;51.508;4.288;2023-12-04T10:00:42;5.95;;;4.03;;
47403;SDS011;33157;51.508;4.288;2023-12-04T10:05:43;8.73;;;4.07;;
47403;SDS011;33157;51.508;4.288;2023-12-04T10:10:44;6.75;;;3.97;;
47403;SDS011;33157;51.508;4.288;2023-12-04T10:15:48;7.80;;;4.30;;
47403;SDS011;33157;51.508;4.288;2023-12-04T10:20:52;7.70;;;4.07;;
47403;SDS011;33157;51.508;4.288;2023-12-04T10:25:54;6.22;;;3.70;;
47403;SDS011;33157;51.508;4.288;2023-12-04T10:30:55;6.43;;;4.28;;
47403;SDS011;33157;51.508;4.288;2023-12-04T10:35:55;6.18;;;3.97;;
47403;SDS011;33157;51.508;4.288;2023-12-04T10:40:56;7.30;;;4.10;;
47403;SDS011;33157;51.508;4.288;2023-12-04T10:46:12;6.20;;;3.72;;
47403;SDS011;33157;51.508;4.288;2023-12-04T10:51:13;6.22;;;4.13;;
47403;SDS011;33157;51.508;4.288;2023-12-04T10:56:33;8.90;;;4.28;;
47403;SDS011;33157;51.508;4.288;2023-12-04T11:01:36;7.65;;;4.90;;
47403;SDS011;33157;51.508;4.288;2023-12-04T11:06:38;12.88;;;7.30;;
47403;SDS011;33157;51.508;4.288;2023-12-04T11:11:40;9.30;;;4.60;;
47403;SDS011;33157;51.508;4.288;2023-12-04T11:16:48;5.65;;;3.90;;
47403;SDS011;33157;51.508;4.288;2023-12-04T11:21:50;6.82;;;3.92;;
47403;SDS011;33157;51.508;4.288;2023-12-04T11:26:50;5.68;;;3.60;;
47403;SDS011;33157;51.508;4.288;2023-12-04T11:31:51;5.80;;;3.83;;
47403;SDS011;33157;51.508;4.288;2023-12-04T11:36:52;7.10;;;3.95;;
47403;SDS011;33157;51.508;4.288;2023-12-04T11:41:52;6.70;;;4.10;;
47403;SDS011;33157;51.508;4.288;2023-12-04T11:46:56;7.50;;;4.40;;
47403;SDS011;33157;51.508;4.288;2023-12-04T11:52:00;7.43;;;4.72;;
47403;SDS011;33157;51.508;4.288;2023-12-04T12:02:09;6.55;;;3.97;;
47403;SDS011;33157;51.508;4.288;2023-12-04T12:12:13;7.18;;;4.57;;
47403;SDS011;33157;51.508;4.288;2023-12-04T12:17:18;7.22;;;4.78;;
47403;SDS011;33157;51.508;4.288;2023-12-04T12:22:18;8.70;;;4.72;;
47403;SDS011;33157;51.508;4.288;2023-12-04T12:27:19;11.82;;;4.72;;
47403;SDS011;33157;51.508;4.288;2023-12-04T12:32:20;9.30;;;5.25;;
47403;SDS011;33157;51.508;4.288;2023-12-04T12:37:21;8.25;;;5.22;;
47403;SDS011;33157;51.508;4.288;2023-12-04T12:42:26;8.88;;;5.15;;
47403;SDS011;33157;51.508;4.288;2023-12-04T12:47:27;7.85;;;4.60;;
47403;SDS011;33157;51.508;4.288;2023-12-04T12:52:29;8.43;;;5.60;;
47403;SDS011;33157;51.508;4.288;2023-12-04T12:57:30;8.05;;;4.93;;
47403;SDS011;33157;51.508;4.288;2023-12-04T13:02:33;9.55;;;5.78;;
47403;SDS011;33157;51.508;4.288;2023-12-04T13:07:35;8.13;;;5.60;;
47403;SDS011;33157;51.508;4.288;2023-12-04T13:12:35;9.45;;;5.50;;
47403;SDS011;33157;51.508;4.288;2023-12-04T13:17:36;8.95;;;5.80;;
47403;SDS011;33157;51.508;4.288;2023-12-04T13:22:36;8.55;;;5.28;;
47403;SDS011;33157;51.508;4.288;2023-12-04T13:27:37;9.25;;;5.35;;
47403;SDS011;33157;51.508;4.288;2023-12-04T13:32:40;9.73;;;6.28;;
47403;SDS011;33157;51.508;4.288;2023-12-04T13:37:41;9.18;;;5.40;;
47403;SDS011;33157;51.508;4.288;2023-12-04T13:42:41;7.95;;;5.35;;
47403;SDS011;33157;51.508;4.288;2023-12-04T13:48:00;10.93;;;6.00;;
47403;SDS011;33157;51.508;4.288;2023-12-04T13:53:00;11.43;;;6.50;;
47403;SDS011;33157;51.508;4.288;2023-12-04T13:58:01;11.27;;;6.45;;
47403;SDS011;33157;51.508;4.288;2023-12-04T14:03:04;8.30;;;5.13;;
47403;SDS011;33157;51.508;4.288;2023-12-04T14:08:05;12.57;;;5.85;;
47403;SDS011;33157;51.508;4.288;2023-12-04T14:13:05;10.48;;;7.05;;
47403;SDS011;33157;51.508;4.288;2023-12-04T14:18:08;12.13;;;5.93;;
47403;SDS011;33157;51.508;4.288;2023-12-04T14:23:09;10.75;;;6.22;;
47403;SDS011;33157;51.508;4.288;2023-12-04T14:28:09;9.77;;;6.07;;
47403;SDS011;33157;51.508;4.288;2023-12-04T14:33:09;10.32;;;6.25;;
47403;SDS011;33157;51.508;4.288;2023-12-04T14:38:10;10.95;;;7.13;;
47403;SDS011;33157;51.508;4.288;2023-12-04T14:43:11;11.48;;;7.13;;
47403;SDS011;33157;51.508;4.288;2023-12-04T14:48:12;10.80;;;6.90;;
47403;SDS011;33157;51.508;4.288;2023-12-04T14:53:12;10.23;;;7.35;;
47403;SDS011;33157;51.508;4.288;2023-12-04T14:58:16;12.35;;;7.50;;
47403;SDS011;33157;51.508;4.288;2023-12-04T15:03:35;11.55;;;7.75;;
47403;SDS011;33157;51.508;4.288;2023-12-04T15:09:14;12.05;;;8.07;;
47403;SDS011;33157;51.508;4.288;2023-12-04T15:14:14;12.00;;;8.10;;
47403;SDS011;33157;51.508;4.288;2023-12-04T15:19:36;15.27;;;9.13;;
47403;SDS011;33157;51.508;4.288;2023-12-04T15:24:43;15.07;;;9.52;;
47403;SDS011;33157;51.508;4.288;2023-12-04T15:29:44;11.77;;;8.55;;
47403;SDS011;33157;51.508;4.288;2023-12-04T15:34:44;13.48;;;9.10;;
47403;SDS011;33157;51.508;4.288;2023-12-04T15:39:45;16.08;;;9.65;;
47403;SDS011;33157;51.508;4.288;2023-12-04T15:44:45;13.27;;;9.75;;
47403;SDS011;33157;51.508;4.288;2023-12-04T15:49:46;15.27;;;10.77;;
47403;SDS011;33157;51.508;4.288;2023-12-04T15:54:47;18.10;;;9.98;;
47403;SDS011;33157;51.508;4.288;2023-12-04T15:59:48;16.25;;;10.00;;
47403;SDS011;33157;51.508;4.288;2023-12-04T16:04:48;13.68;;;10.63;;
47403;SDS011;33157;51.508;4.288;2023-12-04T16:09:49;17.88;;;11.82;;
47403;SDS011;33157;51.508;4.288;2023-12-04T16:14:50;16.95;;;11.90;;
47403;SDS011;33157;51.508;4.288;2023-12-04T16:19:51;17.05;;;11.75;;
47403;SDS011;33157;51.508;4.288;2023-12-04T16:24:51;17.52;;;12.27;;
47403;SDS011;33157;51.508;4.288;2023-12-04T16:29:52;17.45;;;12.35;;
47403;SDS011;33157;51.508;4.288;2023-12-04T16:34:52;16.35;;;12.18;;
47403;SDS011;33157;51.508;4.288;2023-12-04T16:39:52;18.23;;;11.75;;
47403;SDS011;33157;51.508;4.288;2023-12-04T16:44:53;17.60;;;12.40;;
47403;SDS011;33157;51.508;4.288;2023-12-04T16:49:53;18.20;;;12.98;;
47403;SDS011;33157;51.508;4.288;2023-12-04T16:54:54;17.67;;;12.00;;
47403;SDS011;33157;51.508;4.288;2023-12-04T16:59:55;18.92;;;13.07;;
47403;SDS011;33157;51.508;4.288;2023-12-04T17:04:56;20.77;;;13.40;;
47403;SDS011;33157;51.508;4.288;2023-12-04T17:09:56;19.92;;;14.23;;
47403;SDS011;33157;51.508;4.288;2023-12-04T17:14:57;18.30;;;13.27;;
47403;SDS011;33157;51.508;4.288;2023-12-04T17:19:58;20.73;;;14.40;;
47403;SDS011;33157;51.508;4.288;2023-12-04T17:24:58;17.52;;;13.50;;
47403;SDS011;33157;51.508;4.288;2023-12-04T17:30:00;21.25;;;14.68;;
47403;SDS011;33157;51.508;4.288;2023-12-04T17:35:00;22.45;;;15.07;;
47403;SDS011;33157;51.508;4.288;2023-12-04T17:40:01;19.42;;;14.40;;
47403;SDS011;33157;51.508;4.288;2023-12-04T17:45:02;22.10;;;14.70;;
47403;SDS011;33157;51.508;4.288;2023-12-04T17:50:03;20.25;;;14.98;;
47403;SDS011;33157;51.508;4.288;2023-12-04T17:55:08;32.58;;;17.40;;
47403;SDS011;33157;51.508;4.288;2023-12-04T18:00:09;23.77;;;16.30;;
47403;SDS011;33157;51.508;4.288;2023-12-04T18:05:17;24.08;;;16.10;;
47403;SDS011;33157;51.508;4.288;2023-12-04T18:10:17;24.70;;;17.77;;
47403;SDS011;33157;51.508;4.288;2023-12-04T18:15:26;25.65;;;18.70;;
47403;SDS011;33157;51.508;4.288;2023-12-04T18:20:27;26.27;;;18.38;;
47403;SDS011;33157;51.508;4.288;2023-12-04T18:25:28;24.20;;;17.65;;
47403;SDS011;33157;51.508;4.288;2023-12-04T18:30:29;28.40;;;19.30;;
47403;SDS011;33157;51.508;4.288;2023-12-04T18:35:30;27.20;;;19.02;;
47403;SDS011;33157;51.508;4.288;2023-12-04T18:40:31;25.65;;;18.55;;
47403;SDS011;33157;51.508;4.288;2023-12-04T18:45:31;27.98;;;19.35;;
47403;SDS011;33157;51.508;4.288;2023-12-04T18:50:32;28.63;;;20.17;;
47403;SDS011;33157;51.508;4.288;2023-12-04T18:55:33;29.25;;;20.92;;
47403;SDS011;33157;51.508;4.288;2023-12-04T19:00:33;32.28;;;21.90;;
47403;SDS011;33157;51.508;4.288;2023-12-04T19:05:36;29.67;;;21.42;;
47403;SDS011;33157;51.508;4.288;2023-12-04T19:10:36;30.52;;;21.83;;
47403;SDS011;33157;51.508;4.288;2023-12-04T19:15:37;30.35;;;20.83;;
47403;SDS011;33157;51.508;4.288;2023-12-04T19:20:37;30.77;;;21.70;;
47403;SDS011;33157;51.508;4.288;2023-12-04T19:25:38;28.45;;;20.02;;
47403;SDS011;33157;51.508;4.288;2023-12-04T19:35:40;27.92;;;20.58;;
47403;SDS011;33157;51.508;4.288;2023-12-04T19:40:41;28.70;;;21.00;;
47403;SDS011;33157;51.508;4.288;2023-12-04T19:45:41;28.77;;;21.55;;
47403;SDS011;33157;51.508;4.288;2023-12-04T19:50:43;28.20;;;21.17;;
47403;SDS011;33157;51.508;4.288;2023-12-04T19:55:43;31.00;;;21.35;;
47403;SDS011;33157;51.508;4.288;2023-12-04T20:00:43;30.50;;;23.08;;
47403;SDS011;33157;51.508;4.288;2023-12-04T20:05:45;31.90;;;22.50;;
47403;SDS011;33157;51.508;4.288;2023-12-04T20:10:47;28.08;;;21.15;;
47403;SDS011;33157;51.508;4.288;2023-12-04T20:15:48;32.33;;;23.80;;
47403;SDS011;33157;51.508;4.288;2023-12-04T20:20:48;30.38;;;22.33;;
47403;SDS011;33157;51.508;4.288;2023-12-04T20:25:49;32.22;;;21.85;;
47403;SDS011;33157;51.508;4.288;2023-12-04T20:30:52;32.78;;;23.50;;
47403;SDS011;33157;51.508;4.288;2023-12-04T20:35:52;31.23;;;23.17;;
47403;SDS011;33157;51.508;4.288;2023-12-04T20:40:54;33.85;;;24.15;;
47403;SDS011;33157;51.508;4.288;2023-12-04T20:45:54;37.35;;;25.02;;
47403;SDS011;33157;51.508;4.288;2023-12-04T20:50:57;35.47;;;24.30;;
47403;SDS011;33157;51.508;4.288;2023-12-04T20:55:57;31.05;;;24.17;;
47403;SDS011;33157;51.508;4.288;2023-12-04T21:00:58;35.25;;;25.20;;
47403;SDS011;33157;51.508;4.288;2023-12-04T21:05:58;32.33;;;24.30;;
47403;SDS011;33157;51.508;4.288;2023-12-04T21:10:59;36.05;;;25.42;;
47403;SDS011;33157;51.508;4.288;2023-12-04T21:15:59;38.22;;;25.65;;
47403;SDS011;33157;51.508;4.288;2023-12-04T21:20:59;38.45;;;25.98;;
47403;SDS011;33157;51.508;4.288;2023-12-04T21:26:00;36.03;;;25.50;;
47403;SDS011;33157;51.508;4.288;2023-12-04T21:36:03;36.13;;;24.52;;
47403;SDS011;33157;51.508;4.288;2023-12-04T21:41:05;37.55;;;26.55;;
47403;SDS011;33157;51.508;4.288;2023-12-04T21:46:06;36.30;;;24.80;;
47403;SDS011;33157;51.508;4.288;2023-12-04T21:51:07;36.55;;;25.02;;
47403;SDS011;33157;51.508;4.288;2023-12-04T21:56:08;36.22;;;25.42;;
47403;SDS011;33157;51.508;4.288;2023-12-04T22:01:08;36.72;;;25.67;;
47403;SDS011;33157;51.508;4.288;2023-12-04T22:06:09;37.03;;;25.75;;
47403;SDS011;33157;51.508;4.288;2023-12-04T22:11:09;39.20;;;27.42;;
47403;SDS011;33157;51.508;4.288;2023-12-04T22:16:10;40.90;;;27.05;;
47403;SDS011;33157;51.508;4.288;2023-12-04T22:21:10;42.70;;;27.50;;
47403;SDS011;33157;51.508;4.288;2023-12-04T22:26:12;38.40;;;27.97;;
47403;SDS011;33157;51.508;4.288;2023-12-04T22:31:12;42.22;;;29.35;;
47403;SDS011;33157;51.508;4.288;2023-12-04T22:36:13;39.42;;;27.15;;
47403;SDS011;33157;51.508;4.288;2023-12-04T22:41:14;40.60;;;28.75;;
47403;SDS011;33157;51.508;4.288;2023-12-04T22:46:14;44.88;;;29.55;;
47403;SDS011;33157;51.508;4.288;2023-12-04T22:51:15;42.42;;;29.45;;
47403;SDS011;33157;51.508;4.288;2023-12-04T22:56:16;42.27;;;29.00;;
47403;SDS011;33157;51.508;4.288;2023-12-04T23:01:17;46.75;;;30.42;;
47403;SDS011;33157;51.508;4.288;2023-12-04T23:06:18;46.25;;;30.70;;
47403;SDS011;33157;51.508;4.288;2023-12-04T23:11:18;44.88;;;30.63;;
47403;SDS011;33157;51.508;4.288;2023-12-04T23:16:21;46.97;;;31.38;;
47403;SDS011;33157;51.508;4.288;2023-12-04T23:21:22;48.88;;;32.10;;
47403;SDS011;33157;51.508;4.288;2023-12-04T23:26:22;48.65;;;32.53;;
47403;SDS011;33157;51.508;4.288;2023-12-04T23:31:24;45.92;;;30.85;;
47403;SDS011;33157;51.508;4.288;2023-12-04T23:36:24;50.22;;;32.25;;
47403;SDS011;33157;51.508;4.288;2023-12-04T23:41:26;48.00;;;31.80;;
47403;SDS011;33157;51.508;4.288;2023-12-04T23:46:27;50.83;;;31.48;;
47403;SDS011;33157;51.508;4.288;2023-12-04T23:51:27;46.35;;;31.45;;
47403;SDS011;33157;51.508;4.288;2023-12-04T23:56:27;48.95;;;32.08;;
